Adkins, TX (78101)

1:27 AM CST on January 18, 2017 (GMT -0600)
Sayers | | Change Station

Elev 582 ft 29.39 °N, 98.28 °W | Updated 2 minutes ago

Overcast
Overcast
49.8 °F
Feels Like 50 °F
N
0.0
Wind Variable Wind from NE
Gusts 11.0 mph

Today
High -- | Low -- °F
--% Chance of Precip.
Yesterday
High -- | Low -- °F
Precip. -- in
Pressure 30.06 in
Visibility 10.0 miles
Clouds Few 100 ft
Overcast 600 ft
Windchill 50 °F
Dew Point 47 °F
Humidity 89%
Rainfall 0.00 in
Snow Depth Not available.
7:27 AM 5:59 PM
Waning Gibbous, 65% visible
SPECI KRND 180713Z AUTO 01011KT 10SM -RA FEW001 OVC006 10/10 A3006 RMK AO2 RAB01 OVC V BKN
Pressure 30.06 in
Visibility 10.0 miles
Clouds Few 100 ft
Overcast 600 ft
Windchill 50 °F
Dew Point 47 °F
Humidity 89%
Rainfall 0.00 in
Snow Depth Not available.
7:27 AM 5:59 PM
Waning Gibbous, 65% visible
SPECI KRND 180713Z AUTO 01011KT 10SM -RA FEW001 OVC006 10/10 A3006 RMK AO2 RAB01 OVC V BKN

Get Your Daily Forecast Email!

Thanks for signing up!

Be on the lookout for a verification email in your inbox.

You'll start receiving the daily forecast at 8 AM.

×

10-Day Weather Forecast

Almanac

Astronomy

Jan. 18, 2017 Rise Set
Actual Time
Civil Twilight
Nautical Twilight
Astronomical Twilight
Moon
Length of Visible Light
Length of Day
Tomorrow will be .
, % of the Moon is Illuminated

Today's Extremes

State Highs State Lows

Community

WunderPhotos

Upload Photos

1,962,540 photos uploaded!

WunderBlog® & News

Nearby

Air Quality

  Air Quality AQ Index Pollutant
Not available.

Snow Depth

Station Depth Elevation

Earthquake Activity

City Distance Mag. Time & Date
Minimum magnitude displayed is 2.5.

Coastal Water Temperatures

Place Temperature

Stations

Nearby Weather Stations

Station Location Temp. Windchill Dew Point Humidity Wind Precip. Elev Updated Type
                   

Watches & Warnings

There are currently no watches in effect.